Columbus, IN (47203)

10:05 AM EDT on July 30, 2016 (GMT -0400)
| | Change Station

Elev -9999 ft 0.00 °N, 0.00 °E | Updated

Partly Cloudy
Partly Cloudy
79 °F
Feels Like 79 °F
N
5
Wind Variable Wind from West
Gusts mph

Today
High -- | Low -- °F
--% Chance of Precip.
Yesterday
High -- | Low -- °F
Precip. -- in
Pressure 29.98 in
Visibility 10.0 miles
Clouds Few 3300 ft
Scattered Clouds 20000 ft
Dew Point 69 °F
Humidity 72%
Rainfall --
Snow Depth Not available.
6:42 AM 8:56 PM
Waning Crescent, 13% visible
METAR KBAK 301353Z 26003KT 10SM FEW033 SCT200 24/23 A2998
Pressure 29.98 in
Visibility 10.0 miles
Clouds Few 3300 ft
Scattered Clouds 20000 ft
Dew Point 69 °F
Humidity 72%
Rainfall --
Snow Depth Not available.
6:42 AM 8:56 PM
Waning Crescent, 13% visible
METAR KBAK 301353Z 26003KT 10SM FEW033 SCT200 24/23 A2998

10-Day Weather Forecast

Almanac

Astronomy

Jul. 30, 2016 Rise Set
Actual Time
Civil Twilight
Nautical Twilight
Astronomical Twilight
Moon
Length of Visible Light
Length of Day
Tomorrow will be .
, % of the Moon is Illuminated

Today's Extremes

State Highs State Lows

Community

WunderPhotos

Upload Photos

1,928,564 photos uploaded!

WunderBlog® & News

Nearby

Air Quality

  Air Quality AQ Index Pollutant
Not available.

Snow Depth

Station Depth Elevation

Earthquake Activity

City Distance Mag. Time & Date
Minimum magnitude displayed is 2.5.

Coastal Water Temperatures

Place Temperature

Stations

Nearby Weather Stations

Station Location Temp. Windchill Dew Point Humidity Wind Precip. Elev Updated Type
                   

Watches & Warnings

There are currently no watches in effect.